createdAt,value
2023-01-17T00:01:34.244Z,95066.09
2023-01-17T00:04:20.148Z,95070.78
2023-01-17T00:07:05.594Z,95068.69
2023-01-17T00:09:50.762Z,95075.81
2023-01-17T00:12:17.532Z,95070.31
2023-01-17T00:14:44.226Z,95072.75
2023-01-17T00:17:10.882Z,95068.19
2023-01-17T00:19:56.149Z,95066.13
2023-01-17T00:22:45.272Z,95069.06
2023-01-17T00:25:36.345Z,95074.19
2023-01-17T00:28:02.896Z,95069.81
2023-01-17T00:30:29.820Z,95076.34
2023-01-17T00:32:56.546Z,95070.75
2023-01-17T00:35:23.761Z,95067.00
2023-01-17T00:38:04.524Z,95068.47
2023-01-17T00:40:32.648Z,95079.41
2023-01-17T00:43:17.878Z,95077.19
2023-01-17T00:46:04.107Z,95085.31
2023-01-17T00:48:49.945Z,95085.50
2023-01-17T00:51:35.801Z,95092.72
2023-01-17T00:54:21.528Z,95084.91
2023-01-17T00:57:08.495Z,95078.75
2023-01-17T00:59:53.772Z,95084.38
2023-01-17T01:02:39.209Z,95090.72
2023-01-17T01:05:24.648Z,95090.13
2023-01-17T01:08:10.038Z,95094.78
2023-01-17T01:10:55.228Z,95104.56
2023-01-17T01:13:45.144Z,95094.72
2023-01-17T01:16:31.584Z,95098.72
2023-01-17T01:19:17.276Z,95086.47
2023-01-17T01:22:03.284Z,95088.56
2023-01-17T01:24:49.083Z,95100.38
2023-01-17T01:27:34.413Z,95101.00
2023-01-17T01:30:19.619Z,95107.63
2023-01-17T01:33:04.993Z,95103.53
2023-01-17T01:35:31.918Z,95107.97
2023-01-17T01:37:58.457Z,95113.38
2023-01-17T01:40:25.286Z,95111.34
2023-01-17T01:42:53.054Z,95115.19
2023-01-17T01:45:23.769Z,95107.13
2023-01-17T01:47:54.141Z,95114.03
2023-01-17T01:50:21.742Z,95108.97
2023-01-17T01:52:55.184Z,95108.66
2023-01-17T01:55:27.930Z,95110.13
2023-01-17T01:57:58.935Z,95120.28
2023-01-17T02:00:36.421Z,95118.97
2023-01-17T02:03:08.941Z,95129.00
2023-01-17T02:05:36.117Z,95124.56
2023-01-17T02:08:07.756Z,95121.28
2023-01-17T02:10:37.977Z,95116.53
2023-01-17T02:13:06.044Z,95114.03
2023-01-17T02:15:44.559Z,95117.34
2023-01-17T02:18:34.559Z,95117.69
2023-01-17T02:21:30.485Z,95123.94
2023-01-17T02:24:15.948Z,95130.81
2023-01-17T02:26:57.878Z,95133.09
2023-01-17T02:30:31.839Z,95126.34
2023-01-17T02:33:16.395Z,95128.28
2023-01-17T02:35:56.354Z,95130.28
2023-01-17T02:39:12.057Z,95132.22
2023-01-17T02:41:45.680Z,95126.81
2023-01-17T02:44:16.824Z,95135.72
2023-01-17T02:46:50.170Z,95137.16
2023-01-17T02:49:20.746Z,95139.47
2023-01-17T02:52:06.126Z,95130.63
2023-01-17T02:54:54.457Z,95132.75
2023-01-17T02:58:13.416Z,95136.13
2023-01-17T03:01:18.777Z,95134.19
2023-01-17T03:04:03.465Z,95145.03
2023-01-17T03:06:34.752Z,95145.22
2023-01-17T03:09:02.436Z,95146.41
2023-01-17T03:11:29.019Z,95151.47
2023-01-17T03:13:57.042Z,95143.72
2023-01-17T03:16:26.731Z,95151.97
2023-01-17T03:18:54.010Z,95154.91
2023-01-17T03:21:22.103Z,95158.22
2023-01-17T03:23:48.757Z,95152.81
2023-01-17T03:26:15.702Z,95160.38
2023-01-17T03:28:43.447Z,95154.59
2023-01-17T03:31:13.806Z,95148.84
2023-01-17T03:33:40.585Z,95161.16
2023-01-17T03:36:07.247Z,95169.88
2023-01-17T03:38:34.065Z,95165.78
2023-01-17T03:41:00.865Z,95168.56
2023-01-17T03:43:27.573Z,95168.66
2023-01-17T03:46:01.467Z,95180.50
2023-01-17T03:48:28.355Z,95165.59
2023-01-17T03:50:54.982Z,95172.63
2023-01-17T03:53:21.606Z,95175.31
2023-01-17T03:55:49.254Z,95176.88
2023-01-17T03:58:17.398Z,95177.44
2023-01-17T04:00:44.026Z,95175.56
2023-01-17T04:03:10.857Z,95182.16
2023-01-17T04:05:37.535Z,95171.53
2023-01-17T04:08:04.134Z,95176.25
2023-01-17T04:10:30.719Z,95170.53
2023-01-17T04:12:58.117Z,95178.78
2023-01-17T04:15:24.802Z,95181.84
2023-01-17T04:17:51.466Z,95179.69
2023-01-17T04:20:38.465Z,95182.53
2023-01-17T04:23:05.632Z,95175.94
2023-01-17T04:25:32.528Z,95166.94
2023-01-17T04:28:00.961Z,95173.97
2023-01-17T04:30:28.486Z,95171.34
2023-01-17T04:32:55.534Z,95172.03
2023-01-17T04:35:22.970Z,95177.47
2023-01-17T04:37:49.900Z,95177.59
2023-01-17T04:40:17.012Z,95177.47
2023-01-17T04:42:47.615Z,95185.00
2023-01-17T04:45:15.125Z,95191.28
2023-01-17T04:47:41.744Z,95188.63
2023-01-17T04:50:09.600Z,95187.47
2023-01-17T04:52:36.383Z,95202.25
2023-01-17T04:55:03.029Z,95197.16
2023-01-17T04:57:29.864Z,95197.81
2023-01-17T04:59:56.481Z,95204.06
2023-01-17T05:02:23.234Z,95200.81
2023-01-17T05:04:49.989Z,95197.69
2023-01-17T05:07:16.468Z,95210.66
2023-01-17T05:09:43.885Z,95204.59
2023-01-17T05:12:11.411Z,95207.38
2023-01-17T05:14:38.140Z,95209.19
2023-01-17T05:17:04.874Z,95211.59
2023-01-17T05:19:33.301Z,95210.63
2023-01-17T05:22:03.945Z,95211.59
2023-01-17T05:24:32.280Z,95203.38
2023-01-17T05:27:03.274Z,95216.22
2023-01-17T05:29:30.748Z,95211.59
2023-01-17T05:31:57.848Z,95217.84
2023-01-17T05:34:25.256Z,95224.09
2023-01-17T05:36:52.118Z,95224.09
2023-01-17T05:39:19.170Z,95230.28
2023-01-17T05:41:46.253Z,95236.69
2023-01-17T05:44:13.202Z,95235.22
2023-01-17T05:46:39.972Z,95224.84
2023-01-17T05:49:06.677Z,95231.09
2023-01-17T05:51:38.140Z,95242.91
2023-01-17T05:54:06.450Z,95260.81
2023-01-17T05:56:42.049Z,95248.19
2023-01-17T05:59:09.501Z,95254.72
2023-01-17T06:01:40.255Z,95264.97
2023-01-17T06:04:07.281Z,95260.19
2023-01-17T06:06:34.070Z,95262.84
2023-01-17T06:09:00.742Z,95271.84
2023-01-17T06:11:27.601Z,95276.41
2023-01-17T06:13:54.891Z,95280.03
2023-01-17T06:16:21.631Z,95282.91
2023-01-17T06:18:48.264Z,95285.66
2023-01-17T06:21:15.527Z,95293.41
2023-01-17T06:23:42.205Z,95288.16
2023-01-17T06:26:09.737Z,95287.66
2023-01-17T06:28:36.424Z,95298.47
2023-01-17T06:31:08.656Z,95302.56
2023-01-17T06:33:35.784Z,95304.75
2023-01-17T06:36:03.120Z,95304.03
2023-01-17T06:38:30.106Z,95312.84
2023-01-17T06:41:00.319Z,95309.94
2023-01-17T06:43:28.686Z,95317.53
2023-01-17T06:45:55.790Z,95323.41
2023-01-17T06:48:22.568Z,95316.88
2023-01-17T06:50:49.928Z,95319.13
2023-01-17T06:53:16.710Z,95310.38
2023-01-17T06:55:43.662Z,95322.22
2023-01-17T06:58:10.622Z,95333.59
2023-01-17T07:00:40.349Z,95351.66
2023-01-17T07:03:15.278Z,95339.44
2023-01-17T07:05:42.340Z,95346.81
2023-01-17T07:08:09.017Z,95351.91
2023-01-17T07:10:35.759Z,95355.59
2023-01-17T07:13:02.448Z,95360.41
2023-01-17T07:15:31.638Z,95361.41
2023-01-17T07:18:01.076Z,95360.53
2023-01-17T07:20:27.811Z,95370.28
2023-01-17T07:22:54.452Z,95372.56
2023-01-17T07:25:21.167Z,95372.00
2023-01-17T07:27:48.042Z,95383.91
2023-01-17T07:30:14.852Z,95380.69
2023-01-17T07:32:41.406Z,95393.06
2023-01-17T07:35:08.422Z,95381.56
2023-01-17T07:37:35.104Z,95391.44
2023-01-17T07:40:03.063Z,95386.66
2023-01-17T07:42:29.783Z,95388.97
2023-01-17T07:44:56.451Z,95382.41
2023-01-17T07:47:24.871Z,95388.78
2023-01-17T07:49:51.525Z,95393.03
2023-01-17T07:52:18.467Z,95383.69
2023-01-17T07:54:45.216Z,95368.16
2023-01-17T07:57:12.256Z,95372.84
2023-01-17T07:59:38.979Z,95376.91
2023-01-17T08:02:06.315Z,95379.28
2023-01-17T08:04:35.318Z,95389.03
2023-01-17T08:07:02.327Z,95387.19
2023-01-17T08:09:29.113Z,95398.25
2023-01-17T08:11:55.767Z,95395.94
2023-01-17T08:14:22.558Z,95396.22
2023-01-17T08:16:49.098Z,95395.31
2023-01-17T08:19:17.082Z,95394.25
2023-01-17T08:21:44.136Z,95396.22
2023-01-17T08:24:14.251Z,95402.13
2023-01-17T08:26:41.084Z,95395.69
2023-01-17T08:29:07.979Z,95405.75
2023-01-17T08:31:35.416Z,95409.63
2023-01-17T08:34:02.149Z,95404.78
2023-01-17T08:36:31.184Z,95400.81
2023-01-17T08:38:58.310Z,95409.56
2023-01-17T08:41:27.841Z,95406.88
2023-01-17T08:43:54.562Z,95412.50
2023-01-17T08:46:21.231Z,95411.44
2023-01-17T08:48:47.873Z,95430.09
2023-01-17T08:51:14.509Z,95424.66
2023-01-17T08:53:42.207Z,95422.66
2023-01-17T08:56:09.643Z,95417.97
2023-01-17T08:58:36.460Z,95429.13
2023-01-17T09:01:05.027Z,95427.56
2023-01-17T09:03:35.030Z,95429.63
2023-01-17T09:06:10.730Z,95439.50
2023-01-17T09:08:38.401Z,95436.53
2023-01-17T09:11:09.925Z,95433.38
2023-01-17T09:13:37.783Z,95436.63
2023-01-17T09:16:05.836Z,95429.38
2023-01-17T09:18:37.497Z,95428.66
2023-01-17T09:21:16.749Z,95436.34
2023-01-17T09:23:43.888Z,95437.63
2023-01-17T09:26:20.386Z,95441.28
2023-01-17T09:28:47.775Z,95445.53
2023-01-17T09:31:17.218Z,95443.13
2023-01-17T09:33:44.684Z,95443.75
2023-01-17T09:36:14.296Z,95442.97
2023-01-17T09:38:43.530Z,95442.41
2023-01-17T09:41:24.087Z,95438.56
2023-01-17T09:44:08.463Z,95433.69
2023-01-17T09:46:42.673Z,95441.31
2023-01-17T09:49:19.409Z,95430.78
2023-01-17T09:51:46.315Z,95429.97
2023-01-17T09:54:22.802Z,95430.44
2023-01-17T09:57:21.351Z,95437.19
2023-01-17T10:00:02.881Z,95439.84
2023-01-17T10:02:56.790Z,95437.53
2023-01-17T10:05:55.821Z,95434.88
2023-01-17T10:08:58.024Z,95433.34
2023-01-17T10:11:48.925Z,95426.06
2023-01-17T10:14:46.231Z,95426.19
2023-01-17T10:17:34.997Z,95429.59
2023-01-17T10:20:34.042Z,95426.34
2023-01-17T10:23:22.085Z,95426.03
2023-01-17T10:25:50.416Z,95429.91
2023-01-17T10:28:34.840Z,95436.34
2023-01-17T10:31:10.520Z,95436.00
2023-01-17T10:33:57.777Z,95440.31
2023-01-17T10:36:32.188Z,95443.94
2023-01-17T10:39:21.052Z,95458.25
2023-01-17T10:41:58.453Z,95443.47
2023-01-17T10:44:50.881Z,95439.69
2023-01-17T10:47:23.392Z,95428.78
2023-01-17T10:49:57.579Z,95421.09
2023-01-17T10:52:27.167Z,95420.84
2023-01-17T10:54:58.731Z,95416.72
2023-01-17T10:57:27.823Z,95416.34
2023-01-17T10:59:58.606Z,95411.44
2023-01-17T11:02:35.462Z,95405.44
2023-01-17T11:05:12.206Z,95398.22
2023-01-17T11:07:40.187Z,95397.59
2023-01-17T11:10:39.975Z,95392.69
2023-01-17T11:13:32.124Z,95395.13
2023-01-17T11:16:09.953Z,95385.25
2023-01-17T11:18:40.050Z,95386.53
2023-01-17T11:21:12.232Z,95382.31
2023-01-17T11:23:42.327Z,95392.38
2023-01-17T11:26:12.020Z,95372.03
2023-01-17T11:28:41.518Z,95375.97
2023-01-17T11:31:25.175Z,95374.84
2023-01-17T11:34:10.022Z,95368.69
2023-01-17T11:36:36.673Z,95373.41
2023-01-17T11:39:23.781Z,95355.31
2023-01-17T11:41:52.267Z,95375.53
2023-01-17T11:44:26.191Z,95367.72
2023-01-17T11:47:11.050Z,95358.41
2023-01-17T11:49:41.316Z,95361.88
2023-01-17T11:52:23.418Z,95360.09
2023-01-17T11:54:52.783Z,95366.59
2023-01-17T11:57:25.574Z,95360.03
2023-01-17T12:00:38.795Z,95364.09
2023-01-17T12:03:24.106Z,95359.38
2023-01-17T12:06:25.081Z,95367.44
2023-01-17T12:09:07.736Z,95353.91
2023-01-17T12:12:22.875Z,95354.13
2023-01-17T12:15:19.571Z,95364.22
2023-01-17T12:18:06.137Z,95366.94
2023-01-17T12:20:40.753Z,95361.50
2023-01-17T12:23:20.684Z,95349.25
2023-01-17T12:26:12.773Z,95353.63
2023-01-17T12:28:51.330Z,95365.13
2023-01-17T12:31:27.870Z,95370.94
2023-01-17T12:34:12.275Z,95379.34
2023-01-17T12:36:56.911Z,95378.22
2023-01-17T12:39:30.798Z,95380.00
2023-01-17T12:42:07.255Z,95369.03
2023-01-17T12:44:50.107Z,95383.50
2023-01-17T12:47:19.813Z,95368.16
2023-01-17T12:49:52.553Z,95369.56
2023-01-17T12:52:53.351Z,95361.53
2023-01-17T12:55:45.592Z,95353.47
2023-01-17T12:58:20.044Z,95351.84
2023-01-17T13:00:51.399Z,95359.19
2023-01-17T13:03:27.369Z,95366.72
2023-01-17T13:05:56.693Z,95374.53
2023-01-17T13:08:48.174Z,95381.31
2023-01-17T13:11:30.739Z,95392.38
2023-01-17T13:13:59.821Z,95384.84
2023-01-17T13:17:20.875Z,95395.25
2023-01-17T13:19:53.200Z,95389.88
2023-01-17T13:22:24.279Z,95396.13
2023-01-17T13:25:23.522Z,95387.19
2023-01-17T13:28:22.404Z,95393.78
2023-01-17T13:30:57.750Z,95405.94
2023-01-17T13:33:31.107Z,95408.41
2023-01-17T13:36:35.421Z,95417.75
2023-01-17T13:39:13.113Z,95410.28
2023-01-17T13:41:52.752Z,95404.34
2023-01-17T13:44:22.903Z,95407.03
2023-01-17T13:47:04.166Z,95423.63
2023-01-17T13:49:34.162Z,95422.69
2023-01-17T13:52:02.953Z,95418.50
2023-01-17T13:54:37.931Z,95411.69
2023-01-17T13:57:23.547Z,95413.81
2023-01-17T13:59:50.859Z,95414.31
2023-01-17T14:02:32.553Z,95405.91
2023-01-17T14:05:18.062Z,95403.88
2023-01-17T14:07:49.678Z,95402.66
2023-01-17T14:10:24.558Z,95401.44
2023-01-17T14:12:51.234Z,95401.00
2023-01-17T14:15:28.399Z,95406.66
2023-01-17T14:18:09.197Z,95395.03
2023-01-17T14:20:43.233Z,95410.09
2023-01-17T14:23:25.891Z,95413.31
2023-01-17T14:25:55.232Z,95407.06
2023-01-17T14:28:40.507Z,95406.31
2023-01-17T14:31:26.938Z,95399.47
2023-01-17T14:34:11.899Z,95403.19
2023-01-17T14:36:39.164Z,95404.53
2023-01-17T14:39:22.112Z,95402.06
2023-01-17T14:41:53.376Z,95395.38
2023-01-17T14:44:25.046Z,95389.94
2023-01-17T14:46:53.108Z,95384.03
2023-01-17T14:49:45.026Z,95390.91
2023-01-17T14:52:31.537Z,95389.53
2023-01-17T14:55:21.471Z,95381.06
2023-01-17T14:58:42.973Z,95374.34
2023-01-17T15:01:26.577Z,95381.13
2023-01-17T15:04:51.270Z,95378.81
2023-01-17T15:07:54.610Z,95381.00
2023-01-17T15:10:31.041Z,95369.91
2023-01-17T15:13:10.495Z,95379.50
2023-01-17T15:15:42.665Z,95370.50
2023-01-17T15:18:19.986Z,95372.53
2023-01-17T15:21:05.064Z,95359.16
2023-01-17T15:24:26.901Z,95355.13
2023-01-17T15:27:25.842Z,95359.22
2023-01-17T15:30:10.109Z,95360.31
2023-01-17T15:32:41.314Z,95371.00
2023-01-17T15:35:18.118Z,95364.84
2023-01-17T15:37:45.216Z,95363.41
2023-01-17T15:40:24.611Z,95357.75
2023-01-17T15:43:01.820Z,95349.09
2023-01-17T15:45:50.870Z,95345.84
2023-01-17T15:48:41.679Z,95340.91
2023-01-17T15:51:12.803Z,95338.31
2023-01-17T15:53:44.293Z,95332.03
2023-01-17T15:56:20.408Z,95337.00
2023-01-17T15:59:10.383Z,95329.03
2023-01-17T16:01:37.619Z,95332.56
2023-01-17T16:04:35.080Z,95326.22
2023-01-17T16:07:23.426Z,95327.56
2023-01-17T16:09:50.148Z,95330.97
2023-01-17T16:12:22.678Z,95316.00
2023-01-17T16:15:10.481Z,95303.97
2023-01-17T16:17:45.679Z,95316.88
2023-01-17T16:24:21.598Z,95324.78
2023-01-17T16:26:54.673Z,95322.88
2023-01-17T16:29:31.282Z,95318.91
2023-01-17T16:32:08.821Z,95323.19
2023-01-17T16:34:36.230Z,95314.09
2023-01-17T16:37:04.284Z,95308.84
2023-01-17T16:39:31.793Z,95306.41
2023-01-17T16:42:02.706Z,95317.44
2023-01-17T16:44:31.485Z,95315.31
2023-01-17T16:47:02.737Z,95309.22
2023-01-17T16:49:34.968Z,95300.19
2023-01-17T16:52:06.227Z,95304.31
2023-01-17T16:54:45.281Z,95304.81
2023-01-17T16:57:24.612Z,95309.75
2023-01-17T17:00:42.899Z,95307.44
2023-01-17T17:03:59.326Z,95303.56
2023-01-17T17:09:47.814Z,95303.31
2023-01-17T17:13:09.566Z,95313.53
2023-01-17T17:15:46.357Z,95315.66
2023-01-17T17:18:25.017Z,95321.72
2023-01-17T17:20:53.060Z,95313.69
2023-01-17T17:23:20.314Z,95315.16
2023-01-17T17:25:55.638Z,95319.94
2023-01-17T17:28:32.098Z,95320.75
2023-01-17T17:31:08.001Z,95316.16
2023-01-17T17:33:38.691Z,95313.84
2023-01-17T17:36:12.211Z,95316.81
2023-01-17T17:38:51.192Z,95308.91
2023-01-17T17:41:20.489Z,95305.72
2023-01-17T17:43:47.686Z,95303.56
2023-01-17T17:46:21.772Z,95307.50
2023-01-17T17:48:50.180Z,95309.25
2023-01-17T17:51:24.675Z,95297.81
2023-01-17T17:53:53.143Z,95300.31
2023-01-17T17:56:20.600Z,95297.44
2023-01-17T17:58:56.891Z,95291.34
2023-01-17T18:01:24.429Z,95295.13
2023-01-17T18:03:52.721Z,95288.56
2023-01-17T18:06:19.787Z,95284.94
2023-01-17T18:08:52.186Z,95291.81
2023-01-17T18:11:21.587Z,95292.97
2023-01-17T18:13:51.154Z,95287.22
2023-01-17T18:16:21.479Z,95291.56
2023-01-17T18:18:51.409Z,95289.41
2023-01-17T18:21:25.439Z,95281.34
2023-01-17T18:23:55.585Z,95282.94
2023-01-17T18:26:26.262Z,95273.91
2023-01-17T18:28:54.611Z,95271.03
2023-01-17T18:31:24.254Z,95286.13
2023-01-17T18:33:52.056Z,95289.25
2023-01-17T18:36:18.678Z,95287.66
2023-01-17T18:38:52.134Z,95279.91
2023-01-17T18:41:29.249Z,95283.84
2023-01-17T18:43:56.612Z,95284.81
2023-01-17T18:46:25.931Z,95281.56
2023-01-17T18:48:56.306Z,95289.03
2023-01-17T18:51:23.615Z,95279.03
2023-01-17T18:53:50.487Z,95278.69
2023-01-17T18:56:22.046Z,95276.88
2023-01-17T18:58:51.415Z,95287.53
2023-01-17T19:01:24.042Z,95285.94
2023-01-17T19:03:54.049Z,95285.78
2023-01-17T19:06:27.207Z,95293.50
2023-01-17T19:08:54.589Z,95301.50
2023-01-17T19:11:23.302Z,95295.84
2023-01-17T19:13:50.574Z,95287.63
2023-01-17T19:16:32.336Z,95288.03
2023-01-17T19:19:12.970Z,95294.00
2023-01-17T19:21:41.840Z,95290.03
2023-01-17T19:24:13.300Z,95285.19
2023-01-17T19:26:43.857Z,95296.41
2023-01-17T19:29:10.732Z,95288.09
2023-01-17T19:31:44.486Z,95296.59
2023-01-17T19:34:14.131Z,95294.78
2023-01-17T19:36:41.730Z,95288.25
2023-01-17T19:39:10.055Z,95293.59
2023-01-17T19:41:42.456Z,95289.41
2023-01-17T19:44:13.809Z,95285.59
2023-01-17T19:46:46.261Z,95290.31
2023-01-17T19:49:13.011Z,95297.03
2023-01-17T19:51:40.667Z,95292.06
2023-01-17T19:54:08.461Z,95288.91
2023-01-17T19:56:35.617Z,95295.44
2023-01-17T19:59:02.796Z,95311.00
2023-01-17T20:01:32.945Z,95306.50
2023-01-17T20:04:01.911Z,95305.31
2023-01-17T20:06:34.124Z,95297.00
2023-01-17T20:09:14.746Z,95303.41
2023-01-17T20:11:51.871Z,95302.97
2023-01-17T20:14:41.007Z,95306.34
2023-01-17T20:17:13.727Z,95304.53
2023-01-17T20:19:41.123Z,95302.34
2023-01-17T20:22:09.501Z,95294.72
2023-01-17T20:24:36.916Z,95287.75
2023-01-17T20:27:03.853Z,95286.56
2023-01-17T20:29:36.074Z,95284.69
2023-01-17T20:32:03.032Z,95283.88
2023-01-17T20:34:34.736Z,95287.78
2023-01-17T20:37:02.254Z,95286.25
2023-01-17T20:39:29.257Z,95283.34
2023-01-17T20:41:57.713Z,95280.69
2023-01-17T20:44:24.509Z,95274.31
2023-01-17T20:46:51.158Z,95269.41
2023-01-17T20:49:19.396Z,95273.75
2023-01-17T20:51:47.432Z,95269.19
2023-01-17T20:54:16.889Z,95267.84
2023-01-17T20:56:45.326Z,95260.28
2023-01-17T20:59:15.029Z,95258.47
2023-01-17T21:01:44.171Z,95276.47
2023-01-17T21:04:12.226Z,95280.13
2023-01-17T21:06:42.130Z,95278.91
2023-01-17T21:09:15.259Z,95279.25
2023-01-17T21:11:42.642Z,95273.41
2023-01-17T21:14:10.178Z,95271.66
2023-01-17T21:16:42.176Z,95271.81
2023-01-17T21:19:12.149Z,95279.00
2023-01-17T21:21:39.230Z,95276.38
2023-01-17T21:24:06.216Z,95275.63
2023-01-17T21:26:33.019Z,95271.38
2023-01-17T21:29:03.683Z,95266.28
2023-01-17T21:31:33.703Z,95262.91
2023-01-17T21:34:04.022Z,95262.19
2023-01-17T21:36:33.736Z,95272.19
2023-01-17T21:39:07.008Z,95265.56
2023-01-17T21:41:36.688Z,95258.25
2023-01-17T21:44:23.362Z,95250.81
2023-01-17T21:46:56.351Z,95253.94
2023-01-17T21:49:24.105Z,95254.59
2023-01-17T21:51:54.305Z,95247.06
2023-01-17T21:54:51.931Z,95255.16
2023-01-17T21:57:40.772Z,95251.31
2023-01-17T22:00:16.689Z,95256.16
2023-01-17T22:02:45.535Z,95263.00
2023-01-17T22:05:17.069Z,95256.75
2023-01-17T22:08:04.513Z,95258.38
2023-01-17T22:10:31.758Z,95258.75
2023-01-17T22:12:58.615Z,95255.81
2023-01-17T22:15:25.195Z,95263.50
2023-01-17T22:17:52.508Z,95250.44
2023-01-17T22:20:22.421Z,95251.63
2023-01-17T22:22:49.295Z,95258.50
2023-01-17T22:25:18.459Z,95254.22
2023-01-17T22:27:46.179Z,95263.94
2023-01-17T22:30:19.557Z,95263.28
2023-01-17T22:32:46.428Z,95262.78
2023-01-17T22:35:13.828Z,95255.91
2023-01-17T22:37:41.409Z,95257.84
2023-01-17T22:40:10.205Z,95253.75
2023-01-17T22:42:37.795Z,95251.63
2023-01-17T22:45:12.988Z,95253.81
2023-01-17T22:47:40.287Z,95251.66
2023-01-17T22:50:09.050Z,95250.03
2023-01-17T22:52:35.899Z,95238.03
2023-01-17T22:55:02.556Z,95248.38
2023-01-17T22:57:29.426Z,95238.69
2023-01-17T22:59:58.522Z,95236.72
2023-01-17T23:02:28.610Z,95230.28
2023-01-17T23:04:58.719Z,95224.41
2023-01-17T23:07:30.987Z,95218.84
2023-01-17T23:09:57.735Z,95222.28
2023-01-17T23:12:24.527Z,95223.31
2023-01-17T23:15:09.756Z,95217.72
2023-01-17T23:17:55.155Z,95219.66
2023-01-17T23:20:21.851Z,95219.44
2023-01-17T23:22:48.500Z,95218.19
2023-01-17T23:25:15.820Z,95219.53
2023-01-17T23:28:03.929Z,95223.28
2023-01-17T23:30:34.846Z,95224.56
2023-01-17T23:33:13.048Z,95216.53
2023-01-17T23:35:42.658Z,95221.47
2023-01-17T23:38:26.706Z,95219.16
2023-01-17T23:41:17.385Z,95213.28
2023-01-17T23:43:44.153Z,95210.78
2023-01-17T23:46:12.372Z,95209.28
2023-01-17T23:48:39.067Z,95206.09
2023-01-17T23:51:08.635Z,95217.25
2023-01-17T23:53:37.298Z,95209.53
2023-01-17T23:56:06.770Z,95216.22
2023-01-17T23:58:34.059Z,95217.28
